map of YAP home
YAP - Airport
Location
City:  Yap Island, Yap, Micronesia (Federated States of)
Name:Yap International Airport
ICAO:PTYA
IATA:YAP
FAA LID:T11

Details
Type:Airport (Aerodrome, Airfield)
Use:Public/Civil, International (customs port of entry)
Latitude:929'56"N (9.498911)
Longitude:13804'57"E (138.082484)
Datum:WGS 1984
Elevation:90 ft (27 m)
Variation:0.22E (WMM2015v2 magnetic declination)
-0.08 annual change
Runways:1
Longest:6000 × 150 ft (1829 × 45.5 m), paved

Time
Time Zone:UTC+10
Local Time:

Weather
METAR:PTYA 041352Z 06008KT 12SM SCT016TCU BKN130 OVC300 27/24 A2990 RMK TCU ALQDS SLP127 T02670242
TAF:PTYA 041120Z 0412/0512 05011KT P6SM VCSH SCT016 SCT130

Related Locations
Nearby:
Farthest:SNSE: 12446 mi / 20030 km
Sento S [Aeropuerto Sento S], BA, BR

Find:

   beyond  
but within

Other Information
Maps:
NOTAMs:
Links:
Sources:

  
  • flag of Micronesia (Federated States of)
  • flag of Yap
  

Sectional Chart

Flight Planning
at skyvector.com

Satellite Image

Google Maps Satellite view

 

Copyright © 2004-2019 Karl L. Swartz. All rights reserved.
The Great Circle Mapper name and logo are trademarks of the Great Circle Mapper.
All other trademarks mentioned herein belong to their respective owners.
Please see credits for attibutions and further copyright information.

  Follow gcmap on Facebook Follow gcmap on Twitter GCmap on LinkedIn

hCard Microformat

Geo Microformat